createdAt,value
2023-01-15T00:02:18.305Z,1.08
2023-01-15T00:04:45.014Z,1.05
2023-01-15T00:07:11.711Z,1.07
2023-01-15T00:09:38.383Z,1.08
2023-01-15T00:12:05.329Z,1.07
2023-01-15T00:14:31.997Z,1.08
2023-01-15T00:16:58.726Z,1.07
2023-01-15T00:19:25.422Z,1.06
2023-01-15T00:21:53.876Z,1.06
2023-01-15T00:24:39.257Z,1.05
2023-01-15T00:27:24.546Z,1.07
2023-01-15T00:29:51.226Z,1.06
2023-01-15T00:32:17.927Z,1.07
2023-01-15T00:34:44.607Z,1.06
2023-01-15T00:37:11.265Z,1.07
2023-01-15T00:39:38.000Z,1.08
2023-01-15T00:42:04.679Z,1.07
2023-01-15T00:44:33.617Z,1.06
2023-01-15T00:47:00.576Z,1.03
2023-01-15T00:49:27.250Z,1.00
2023-01-15T00:51:53.950Z,0.96
2023-01-15T00:54:20.660Z,0.94
2023-01-15T00:56:47.357Z,0.94
2023-01-15T00:59:14.068Z,0.94
2023-01-15T01:01:41.048Z,0.95
2023-01-15T01:04:07.795Z,0.97
2023-01-15T01:06:34.919Z,0.97
2023-01-15T01:09:01.640Z,0.95
2023-01-15T01:11:34.155Z,0.98
2023-01-15T01:14:03.845Z,0.97
2023-01-15T01:16:38.482Z,0.93
2023-01-15T01:19:07.351Z,0.95
2023-01-15T01:21:34.108Z,0.94
2023-01-15T01:24:01.078Z,0.93
2023-01-15T01:26:28.730Z,0.91
2023-01-15T01:28:56.004Z,0.91
2023-01-15T01:31:23.164Z,0.90
2023-01-15T01:33:50.890Z,0.91
2023-01-15T01:36:17.933Z,0.91
2023-01-15T01:38:45.111Z,0.89
2023-01-15T01:41:11.791Z,0.87
2023-01-15T01:44:02.797Z,0.89
2023-01-15T01:46:31.255Z,0.90
2023-01-15T01:49:00.614Z,0.90
2023-01-15T01:51:30.077Z,0.91
2023-01-15T01:53:56.822Z,0.95
2023-01-15T01:56:24.119Z,0.98
2023-01-15T01:58:53.188Z,1.01
2023-01-15T02:01:20.007Z,1.02
2023-01-15T02:03:46.771Z,1.01
2023-01-15T02:06:13.659Z,1.01
2023-01-15T02:08:40.381Z,1.01
2023-01-15T02:11:07.803Z,1.01
2023-01-15T02:13:39.339Z,1.02
2023-01-15T02:16:16.899Z,1.03
2023-01-15T02:18:49.043Z,1.06
2023-01-15T02:21:48.888Z,1.02
2023-01-15T02:24:32.087Z,0.98
2023-01-15T02:27:15.695Z,0.99
2023-01-15T02:29:56.467Z,1.00
2023-01-15T02:32:52.488Z,0.99
2023-01-15T02:35:42.563Z,0.95
2023-01-15T02:38:12.624Z,0.94
2023-01-15T02:40:39.374Z,0.95
2023-01-15T02:43:06.023Z,0.96
2023-01-15T02:45:33.825Z,0.97
2023-01-15T02:48:06.947Z,0.98
2023-01-15T02:50:36.998Z,1.03
2023-01-15T02:53:07.714Z,1.05
2023-01-15T02:55:36.662Z,1.05
2023-01-15T02:58:05.771Z,1.06
2023-01-15T03:00:35.763Z,1.07
2023-01-15T03:03:09.413Z,1.07
2023-01-15T03:05:39.107Z,1.08
2023-01-15T03:08:07.339Z,1.01
2023-01-15T03:11:17.067Z,0.98
2023-01-15T03:13:54.624Z,0.96
2023-01-15T03:16:50.360Z,0.97
2023-01-15T03:19:40.407Z,0.92
2023-01-15T03:22:25.970Z,0.92
2023-01-15T03:24:59.640Z,0.91
2023-01-15T03:27:28.021Z,0.91
2023-01-15T03:30:04.421Z,0.91
2023-01-15T03:32:31.449Z,0.89
2023-01-15T03:34:58.590Z,0.92
2023-01-15T03:37:25.860Z,0.94
2023-01-15T03:39:53.731Z,0.95
2023-01-15T03:42:40.722Z,0.96
2023-01-15T03:45:16.653Z,1.00
2023-01-15T03:48:03.078Z,1.01
2023-01-15T03:51:00.725Z,1.00
2023-01-15T03:53:34.125Z,1.02
2023-01-15T03:56:03.656Z,1.03
2023-01-15T03:58:41.537Z,1.01
2023-01-15T04:01:10.902Z,1.01
2023-01-15T04:03:38.045Z,0.96
2023-01-15T04:06:05.659Z,0.95
2023-01-15T04:08:38.658Z,0.94
2023-01-15T04:11:05.557Z,0.94
2023-01-15T04:13:38.918Z,0.95
2023-01-15T04:16:08.621Z,0.92
2023-01-15T04:18:35.909Z,0.91
2023-01-15T04:21:04.770Z,0.93
2023-01-15T04:23:33.781Z,0.96
2023-01-15T04:26:00.490Z,0.94
2023-01-15T04:28:27.173Z,0.97
2023-01-15T04:30:56.700Z,0.99
2023-01-15T04:33:23.461Z,1.04
2023-01-15T04:35:50.142Z,1.05
2023-01-15T04:38:18.066Z,1.08
2023-01-15T04:41:03.509Z,1.09
2023-01-15T04:43:48.817Z,1.12
2023-01-15T04:46:15.585Z,1.12
2023-01-15T04:48:42.524Z,1.12
2023-01-15T04:51:09.380Z,1.13
2023-01-15T04:53:36.124Z,1.09
2023-01-15T04:56:03.790Z,1.07
2023-01-15T04:58:30.582Z,1.09
2023-01-15T05:00:57.436Z,1.10
2023-01-15T05:03:24.213Z,1.07
2023-01-15T05:05:51.024Z,1.02
2023-01-15T05:08:17.811Z,1.02
2023-01-15T05:10:44.594Z,1.02
2023-01-15T05:13:11.415Z,0.98
2023-01-15T05:15:40.668Z,0.96
2023-01-15T05:18:07.450Z,0.93
2023-01-15T05:20:37.007Z,0.93
2023-01-15T05:23:03.767Z,0.90
2023-01-15T05:25:30.556Z,0.93
2023-01-15T05:27:57.351Z,0.95
2023-01-15T05:30:24.097Z,0.92
2023-01-15T05:32:51.545Z,0.94
2023-01-15T05:35:18.375Z,0.94
2023-01-15T05:37:45.199Z,0.92
2023-01-15T05:40:14.165Z,0.91
2023-01-15T05:42:44.160Z,0.90
2023-01-15T05:45:15.116Z,0.91
2023-01-15T05:47:45.007Z,0.87
2023-01-15T05:50:15.169Z,0.90
2023-01-15T05:52:45.143Z,0.93
2023-01-15T05:55:15.165Z,0.92
2023-01-15T05:57:44.948Z,0.92
2023-01-15T06:00:14.171Z,0.92
2023-01-15T06:02:44.151Z,0.93
2023-01-15T06:05:15.176Z,0.92
2023-01-15T06:07:44.602Z,0.89
2023-01-15T06:10:13.912Z,0.88
2023-01-15T06:12:43.075Z,0.89
2023-01-15T06:15:13.063Z,0.89
2023-01-15T06:17:43.134Z,0.88
2023-01-15T06:20:12.578Z,0.87
2023-01-15T06:22:42.195Z,0.90
2023-01-15T06:25:11.970Z,0.94
2023-01-15T06:27:44.504Z,0.93
2023-01-15T06:30:14.179Z,0.95
2023-01-15T06:32:44.138Z,0.99
2023-01-15T06:35:15.143Z,0.94
2023-01-15T06:37:45.546Z,0.99
2023-01-15T06:47:49.416Z,1.02
2023-01-15T06:50:16.847Z,1.00
2023-01-15T06:52:43.637Z,0.98
2023-01-15T06:55:11.686Z,0.92
2023-01-15T06:57:40.017Z,0.90
2023-01-15T07:00:08.615Z,0.88
2023-01-15T07:02:35.462Z,0.91
2023-01-15T07:05:02.441Z,0.91
2023-01-15T07:07:29.911Z,0.88
2023-01-15T07:09:56.771Z,0.89
2023-01-15T07:12:23.680Z,0.87
2023-01-15T07:14:50.400Z,0.86
2023-01-15T07:17:17.163Z,0.88
2023-01-15T07:19:44.909Z,0.91
2023-01-15T07:22:11.689Z,0.94
2023-01-15T07:24:38.484Z,0.98
2023-01-15T07:27:05.869Z,1.00
2023-01-15T07:29:32.591Z,0.99
2023-01-15T07:31:59.505Z,0.98
2023-01-15T07:34:26.197Z,0.98
2023-01-15T07:36:52.969Z,1.00
2023-01-15T07:39:19.784Z,1.01
2023-01-15T07:42:05.389Z,1.01
2023-01-15T07:44:53.613Z,1.03
2023-01-15T07:47:40.741Z,1.05
2023-01-15T07:50:12.526Z,1.08
2023-01-15T07:52:39.442Z,1.09
2023-01-15T07:55:08.600Z,1.08
2023-01-15T07:57:35.504Z,1.11
2023-01-15T08:00:02.362Z,1.12
2023-01-15T08:02:39.336Z,1.12
2023-01-15T08:05:06.852Z,1.14
2023-01-15T08:07:40.741Z,1.15
2023-01-15T08:10:09.202Z,1.15
2023-01-15T08:12:57.123Z,1.16
2023-01-15T08:15:24.956Z,1.16
2023-01-15T08:17:51.678Z,1.19
2023-01-15T08:20:20.775Z,1.18
2023-01-15T08:22:48.247Z,1.22
2023-01-15T08:25:17.437Z,1.23
2023-01-15T08:27:44.318Z,1.27
2023-01-15T08:30:13.758Z,1.33
2023-01-15T08:32:40.560Z,1.35
2023-01-15T08:35:07.970Z,1.42
2023-01-15T08:37:35.269Z,1.43
2023-01-15T08:40:02.110Z,1.44
2023-01-15T08:42:28.892Z,1.45
2023-01-15T08:44:55.609Z,1.47
2023-01-15T08:47:22.300Z,1.45
2023-01-15T08:49:49.153Z,1.44
2023-01-15T08:52:16.074Z,1.45
2023-01-15T08:54:43.490Z,1.49
2023-01-15T08:57:12.184Z,1.47
2023-01-15T08:59:38.952Z,1.49
2023-01-15T09:02:05.732Z,1.50
2023-01-15T09:04:32.692Z,1.53
2023-01-15T09:06:59.435Z,1.56
2023-01-15T09:09:26.425Z,1.55
2023-01-15T09:11:53.120Z,1.56
2023-01-15T09:14:58.728Z,1.54
2023-01-15T09:17:06.558Z,1.51
2023-01-15T09:19:33.361Z,1.53
2023-01-15T09:22:00.166Z,1.52
2023-01-15T09:24:27.127Z,1.57
2023-01-15T09:26:54.027Z,1.60
2023-01-15T09:29:20.737Z,1.62
2023-01-15T09:31:47.740Z,1.63
2023-01-15T09:34:14.461Z,1.63
2023-01-15T09:36:41.583Z,1.63
2023-01-15T09:39:08.558Z,1.64
2023-01-15T09:42:08.625Z,1.65
2023-01-15T09:45:02.659Z,1.65
2023-01-15T09:47:36.854Z,1.62
2023-01-15T09:50:05.683Z,1.66
2023-01-15T09:52:58.571Z,1.72
2023-01-15T09:55:29.464Z,1.75
2023-01-15T09:57:58.342Z,1.79
2023-01-15T10:00:26.811Z,1.79
2023-01-15T10:03:00.790Z,1.79
2023-01-15T10:05:36.179Z,1.69
2023-01-15T10:08:25.173Z,1.73
2023-01-15T10:10:56.797Z,1.75
2023-01-15T10:13:39.695Z,1.69
2023-01-15T10:16:06.784Z,1.70
2023-01-15T10:18:33.622Z,1.71
2023-01-15T10:21:19.314Z,1.70
2023-01-15T10:24:19.545Z,1.71
2023-01-15T10:26:56.724Z,1.69
2023-01-15T10:29:45.684Z,1.68
2023-01-15T10:32:42.780Z,1.62
2023-01-15T10:35:19.854Z,1.62
2023-01-15T10:37:49.451Z,1.62
2023-01-15T10:40:33.063Z,1.59
2023-01-15T10:43:18.657Z,1.59
2023-01-15T10:46:00.149Z,1.60
2023-01-15T10:48:47.629Z,1.55
2023-01-15T10:51:23.426Z,1.61
2023-01-15T10:54:03.681Z,1.66
2023-01-15T10:56:54.121Z,1.72
2023-01-15T10:59:30.884Z,1.66
2023-01-15T11:01:57.836Z,1.70
2023-01-15T20:44:45.253Z,0.22
2023-01-15T20:47:31.029Z,0.32
2023-01-15T20:49:58.282Z,0.26
2023-01-15T20:52:24.987Z,0.30
2023-01-15T20:54:51.674Z,0.32
2023-01-15T20:57:18.709Z,0.26
2023-01-15T20:59:45.485Z,0.30
2023-01-15T21:02:12.505Z,0.31
2023-01-15T21:04:39.182Z,0.30
2023-01-15T21:07:05.853Z,0.24
2023-01-15T21:09:32.650Z,0.27
2023-01-15T21:11:59.350Z,0.29
2023-01-15T21:14:26.048Z,0.19
2023-01-15T21:16:53.688Z,0.18
2023-01-15T21:19:21.244Z,0.15
2023-01-15T21:21:47.977Z,0.03
2023-01-15T21:24:14.664Z,-0.05
2023-01-15T21:26:41.363Z,-0.04
2023-01-15T21:29:08.199Z,-0.04
2023-01-15T21:31:35.016Z,-0.05
2023-01-15T21:34:01.878Z,-0.01
2023-01-15T21:36:28.575Z,-0.03
2023-01-15T21:38:55.374Z,0.01
2023-01-15T21:41:45.492Z,0.03
2023-01-15T21:44:33.354Z,0.05
2023-01-15T21:47:01.897Z,0.03
2023-01-15T21:49:29.298Z,-0.05
2023-01-15T21:51:56.072Z,-0.04
2023-01-15T21:54:23.092Z,-0.01
2023-01-15T21:56:49.960Z,-0.02
2023-01-15T21:59:16.768Z,0.01
2023-01-15T22:01:43.656Z,0.04
2023-01-15T22:04:10.481Z,0.03
2023-01-15T22:06:38.038Z,0.11
2023-01-15T22:09:05.090Z,0.09
2023-01-15T22:11:43.906Z,0.09
2023-01-15T22:14:23.819Z,0.07
2023-01-15T22:16:53.700Z,0.09
2023-01-15T22:19:21.353Z,0.05
2023-01-15T22:21:49.194Z,0.10
2023-01-15T22:24:16.294Z,0.07
2023-01-15T22:26:43.848Z,0.08
2023-01-15T22:29:11.241Z,0.05
2023-01-15T22:31:40.603Z,0.06
2023-01-15T22:34:08.020Z,-0.03
2023-01-15T22:36:35.337Z,0.03
2023-01-15T22:39:02.116Z,-0.00
2023-01-15T22:41:47.717Z,0.02
2023-01-15T22:44:14.451Z,0.04
2023-01-15T22:46:41.210Z,0.09
2023-01-15T22:49:08.230Z,0.08
2023-01-15T22:51:34.908Z,0.08
2023-01-15T22:54:01.613Z,0.07
2023-01-15T22:56:28.402Z,0.10
2023-01-15T22:58:55.627Z,0.11
2023-01-15T23:01:23.423Z,0.04
2023-01-15T23:03:50.353Z,0.02
2023-01-15T23:06:20.557Z,0.04
2023-01-15T23:08:47.247Z,0.08
2023-01-15T23:11:15.419Z,0.03
2023-01-15T23:13:42.373Z,0.11
2023-01-15T23:16:09.322Z,0.11
2023-01-15T23:18:36.203Z,0.09
2023-01-15T23:21:14.037Z,0.07
2023-01-15T23:23:40.755Z,0.07
2023-01-15T23:26:09.507Z,0.12
2023-01-15T23:28:36.191Z,0.10
2023-01-15T23:31:03.187Z,0.12
2023-01-15T23:33:29.890Z,0.08
2023-01-15T23:35:56.669Z,0.12
2023-01-15T23:38:23.400Z,0.12
2023-01-15T23:40:50.180Z,0.12
2023-01-15T23:43:35.755Z,0.07
2023-01-15T23:46:32.861Z,0.15
2023-01-15T23:49:03.266Z,0.13
2023-01-15T23:51:30.293Z,0.16
2023-01-15T23:53:57.449Z,0.19
2023-01-15T23:56:24.280Z,0.18
2023-01-15T23:58:51.064Z,0.14
